createdAt,value
2023-05-03T00:00:36.163Z,4.32
2023-05-03T00:05:29.315Z,6.28
2023-05-03T00:10:22.633Z,3.85
2023-05-03T00:15:15.885Z,5.68
2023-05-03T00:20:12.157Z,4.18
2023-05-03T00:25:05.943Z,5.00
2023-05-03T00:29:59.197Z,6.50
2023-05-03T00:34:55.052Z,5.03
2023-05-03T00:39:49.957Z,7.10
2023-05-03T00:44:43.535Z,5.55
2023-05-03T00:49:37.108Z,7.80
2023-05-03T00:54:33.111Z,8.00
2023-05-03T00:59:27.984Z,5.25
2023-05-03T01:04:21.918Z,4.72
2023-05-03T01:09:22.592Z,6.97
2023-05-03T01:14:29.623Z,8.02
2023-05-03T01:19:32.389Z,5.78
2023-05-03T01:24:27.532Z,7.85
2023-05-03T01:29:22.061Z,7.78
2023-05-03T01:34:24.722Z,5.97
2023-05-03T01:39:22.317Z,5.70
2023-05-03T01:44:16.950Z,6.03
2023-05-03T01:49:11.689Z,6.95
2023-05-03T01:54:04.955Z,6.60
2023-05-03T01:58:58.160Z,6.40
2023-05-03T02:03:51.322Z,8.50
2023-05-03T02:08:46.102Z,5.97
2023-05-03T02:13:39.550Z,8.98
2023-05-03T02:18:33.770Z,7.78
2023-05-03T02:23:26.839Z,13.40
2023-05-03T02:28:21.987Z,11.20
2023-05-03T02:33:15.707Z,7.30
2023-05-03T02:38:08.917Z,9.75
2023-05-03T02:43:04.024Z,8.23
2023-05-03T02:47:59.608Z,10.70
2023-05-03T02:52:53.684Z,8.27
2023-05-03T02:57:47.002Z,8.40
2023-05-03T03:02:44.610Z,8.55
2023-05-03T03:07:40.355Z,9.73
2023-05-03T03:12:35.179Z,9.45
2023-05-03T03:17:30.721Z,8.57
2023-05-03T03:22:23.957Z,10.13
2023-05-03T03:27:18.551Z,9.32
2023-05-03T03:32:11.783Z,9.50
2023-05-03T03:37:07.088Z,11.55
2023-05-03T03:42:03.138Z,9.32
2023-05-03T03:47:00.837Z,8.40
2023-05-03T03:51:54.202Z,9.32
2023-05-03T03:56:47.453Z,9.30
2023-05-03T04:01:43.828Z,9.98
2023-05-03T04:06:39.374Z,11.85
2023-05-03T04:11:37.017Z,11.85
2023-05-03T04:16:33.434Z,15.40
2023-05-03T04:21:29.508Z,12.85
2023-05-03T04:26:31.955Z,11.25
2023-05-03T04:31:43.863Z,14.10
2023-05-03T04:36:40.241Z,14.82
2023-05-03T04:41:37.036Z,12.07
2023-05-03T04:46:33.063Z,13.45
2023-05-03T04:51:30.361Z,14.10
2023-05-03T04:56:26.881Z,12.75
2023-05-03T05:01:29.956Z,13.65
2023-05-03T05:06:27.533Z,15.80
2023-05-03T05:11:22.388Z,16.35
2023-05-03T05:16:15.892Z,13.77
2023-05-03T05:21:16.528Z,14.35
2023-05-03T05:26:10.160Z,15.23
2023-05-03T05:31:06.619Z,11.02
2023-05-03T05:36:00.591Z,13.55
2023-05-03T05:40:55.969Z,10.95
2023-05-03T05:45:50.447Z,11.07
2023-05-03T05:50:44.566Z,12.43
2023-05-03T05:55:39.824Z,14.20
2023-05-03T06:00:36.356Z,12.10
2023-05-03T06:05:29.622Z,11.80
2023-05-03T06:10:23.006Z,10.95
2023-05-03T06:15:19.292Z,12.25
2023-05-03T06:20:14.155Z,15.90
2023-05-03T06:25:09.791Z,12.05
2023-05-03T06:30:06.680Z,11.10
2023-05-03T06:35:02.397Z,12.40
2023-05-03T06:39:58.018Z,12.90
2023-05-03T06:44:51.339Z,11.18
2023-05-03T06:49:44.820Z,16.60
2023-05-03T06:54:48.648Z,11.82
2023-05-03T06:59:43.457Z,12.88
2023-05-03T07:04:37.943Z,12.40
2023-05-03T07:09:42.619Z,10.95
2023-05-03T07:14:43.756Z,11.25
2023-05-03T07:19:39.914Z,9.50
2023-05-03T07:24:41.265Z,10.88
2023-05-03T07:29:38.977Z,12.50
2023-05-03T07:34:32.935Z,10.43
2023-05-03T07:39:27.799Z,10.10
2023-05-03T07:44:20.935Z,11.43
2023-05-03T07:49:17.523Z,11.50
2023-05-03T07:54:11.152Z,10.13
2023-05-03T07:59:10.104Z,9.43
2023-05-03T08:04:05.084Z,9.77
2023-05-03T08:09:07.881Z,7.30
2023-05-03T08:14:04.319Z,7.55
2023-05-03T08:18:58.922Z,7.90
2023-05-03T08:23:52.254Z,8.38
2023-05-03T08:28:45.481Z,6.28
2023-05-03T08:33:39.136Z,8.45
2023-05-03T08:38:36.690Z,5.43
2023-05-03T08:43:30.769Z,6.20
2023-05-03T08:48:24.283Z,4.65
2023-05-03T08:53:17.574Z,6.70
2023-05-03T08:58:13.331Z,4.07
2023-05-03T09:03:08.603Z,5.97
2023-05-03T09:08:03.401Z,5.38
2023-05-03T09:13:01.278Z,3.72
2023-05-03T09:18:15.959Z,5.35
2023-05-03T09:23:10.174Z,5.97
2023-05-03T09:28:05.162Z,4.72
2023-05-03T09:32:58.409Z,4.43
2023-05-03T09:37:52.995Z,3.92
2023-05-03T09:43:06.878Z,4.28
2023-05-03T09:48:00.801Z,3.85
2023-05-03T09:52:57.720Z,4.07
2023-05-03T09:57:51.384Z,4.40
2023-05-03T10:02:48.231Z,4.25
2023-05-03T10:07:43.505Z,4.63
2023-05-03T10:12:59.985Z,4.60
2023-05-03T10:18:00.282Z,4.25
2023-05-03T10:23:22.357Z,4.97
2023-05-03T10:28:20.044Z,7.80
2023-05-03T10:33:35.026Z,4.32
2023-05-03T10:38:30.242Z,4.90
2023-05-03T10:43:52.147Z,4.35
2023-05-03T10:49:20.964Z,4.60
2023-05-03T10:54:14.504Z,3.70
2023-05-03T10:59:09.123Z,5.95
2023-05-03T11:04:09.466Z,3.75
2023-05-03T11:09:07.860Z,7.53
2023-05-03T11:14:04.525Z,3.03
2023-05-03T11:19:01.378Z,3.42
2023-05-03T11:23:57.206Z,3.50
2023-05-03T11:28:52.337Z,5.18
2023-05-03T11:33:47.982Z,5.57
2023-05-03T11:38:47.240Z,5.00
2023-05-03T11:43:42.721Z,3.00
2023-05-03T11:48:40.488Z,4.38
2023-05-03T11:53:34.846Z,4.70
2023-05-03T11:58:32.334Z,4.13
2023-05-03T12:03:31.369Z,3.35
2023-05-03T12:08:31.385Z,5.60
2023-05-03T12:13:37.078Z,3.97
2023-05-03T12:18:47.747Z,3.55
2023-05-03T12:23:41.787Z,3.22
2023-05-03T12:28:36.667Z,3.95
2023-05-03T12:33:31.642Z,5.90
2023-05-03T12:38:30.668Z,4.03
2023-05-03T12:43:24.852Z,4.20
2023-05-03T12:48:25.048Z,3.67
2023-05-03T12:53:19.334Z,3.63
2023-05-03T12:58:43.171Z,3.83
2023-05-03T13:03:32.792Z,4.28
2023-05-03T13:08:33.573Z,4.10
2023-05-03T13:13:28.751Z,7.47
2023-05-03T13:18:30.627Z,5.68
2023-05-03T13:23:27.997Z,2.30
2023-05-03T13:28:26.377Z,2.45
2023-05-03T13:38:14.470Z,4.90
2023-05-03T13:43:13.108Z,5.25
2023-05-03T13:48:17.639Z,4.53
2023-05-03T13:53:16.920Z,3.50
2023-05-03T13:58:12.117Z,5.15
2023-05-03T14:03:07.320Z,3.13
2023-05-03T14:08:08.111Z,3.17
2023-05-03T14:13:11.561Z,4.40
2023-05-03T14:18:07.995Z,2.00
2023-05-03T14:23:07.695Z,3.88
2023-05-03T14:28:01.040Z,3.03
2023-05-03T14:32:54.254Z,4.80
2023-05-03T14:37:49.089Z,4.07
2023-05-03T14:42:48.974Z,3.55
2023-05-03T14:47:42.745Z,2.58
2023-05-03T14:52:36.956Z,6.20
2023-05-03T14:57:32.433Z,5.65
2023-05-03T15:02:25.934Z,4.55
2023-05-03T15:07:22.517Z,8.65
2023-05-03T15:12:16.088Z,6.60
2023-05-03T15:17:17.583Z,3.20
2023-05-03T15:22:20.099Z,3.60
2023-05-03T15:27:13.552Z,6.00
2023-05-03T15:32:07.125Z,4.82
2023-05-03T15:37:01.829Z,5.35
2023-05-03T15:41:55.076Z,3.90
2023-05-03T15:46:48.510Z,5.68
2023-05-03T15:51:42.014Z,5.70
2023-05-03T15:56:37.871Z,4.50
2023-05-03T16:01:31.312Z,4.28
2023-05-03T16:06:24.573Z,7.22
2023-05-03T16:11:17.822Z,6.50
2023-05-03T16:16:13.816Z,5.05
2023-05-03T16:21:07.334Z,5.47
2023-05-03T16:26:01.218Z,4.10
2023-05-03T16:30:54.401Z,6.35
2023-05-03T16:35:50.190Z,4.70
2023-05-03T16:40:43.661Z,5.60
2023-05-03T16:45:37.718Z,4.57
2023-05-03T16:50:33.915Z,4.00
2023-05-03T16:55:28.379Z,3.53
2023-05-03T17:00:22.002Z,4.38
2023-05-03T17:05:15.421Z,5.05
2023-05-03T17:10:10.124Z,6.18
2023-05-03T17:15:05.113Z,4.45
2023-05-03T17:19:58.326Z,6.10
2023-05-03T17:24:51.755Z,3.40
2023-05-03T17:29:45.429Z,7.10
2023-05-03T17:34:40.548Z,5.15
2023-05-03T17:39:34.448Z,6.25
2023-05-03T17:44:28.021Z,4.28
2023-05-03T17:49:21.444Z,8.80
2023-05-03T17:54:16.061Z,5.15
2023-05-03T17:59:09.334Z,6.05
2023-05-03T18:04:02.640Z,6.03
2023-05-03T18:08:58.188Z,4.68
2023-05-03T18:13:52.803Z,5.90
2023-05-03T18:18:46.061Z,6.47
2023-05-03T18:23:44.656Z,4.97
2023-05-03T18:28:45.337Z,4.72
2023-05-03T18:33:45.240Z,6.30
2023-05-03T18:38:45.304Z,5.22
2023-05-03T18:48:33.376Z,7.75
2023-05-03T18:53:31.794Z,5.15
2023-05-03T18:58:25.361Z,7.53
2023-05-03T19:03:18.726Z,6.80
2023-05-03T19:08:12.275Z,6.45
2023-05-03T19:13:07.452Z,8.35
2023-05-03T19:18:01.065Z,8.20
2023-05-03T19:22:54.382Z,4.50
2023-05-03T19:27:47.508Z,6.88
2023-05-03T19:32:44.027Z,6.63
2023-05-03T19:37:37.581Z,4.38
2023-05-03T19:42:31.298Z,7.05
2023-05-03T19:47:27.086Z,6.00
2023-05-03T19:52:21.750Z,6.10
2023-05-03T19:57:14.941Z,7.32
2023-05-03T20:02:14.833Z,8.10
2023-05-03T20:07:08.240Z,6.78
2023-05-03T20:12:02.810Z,7.15
2023-05-03T20:16:57.073Z,8.75
2023-05-03T20:21:54.763Z,5.57
2023-05-03T20:26:47.922Z,6.65
2023-05-03T20:31:42.618Z,6.05
2023-05-03T20:36:35.824Z,6.68
2023-05-03T20:41:28.966Z,6.57
2023-05-03T20:46:24.964Z,6.05
2023-05-03T20:51:19.546Z,7.38
2023-05-03T20:56:12.648Z,7.10
2023-05-03T21:01:07.041Z,6.03
2023-05-03T21:06:00.180Z,7.60
2023-05-03T21:10:55.194Z,7.72
2023-05-03T21:15:49.864Z,5.72
2023-05-03T21:20:43.108Z,6.95
2023-05-03T21:25:36.291Z,5.55
2023-05-03T21:30:30.799Z,7.45
2023-05-03T21:35:24.118Z,9.07
2023-05-03T21:40:17.654Z,5.88
2023-05-03T21:45:12.329Z,11.45
2023-05-03T21:50:11.119Z,5.85
2023-05-03T21:55:04.439Z,8.07
2023-05-03T21:59:58.478Z,5.25
2023-05-03T22:04:52.010Z,6.88
2023-05-03T22:09:48.856Z,7.82
2023-05-03T22:14:42.257Z,7.35
2023-05-03T22:19:39.060Z,8.65
2023-05-03T22:24:32.372Z,6.60
2023-05-03T22:29:28.728Z,7.40
2023-05-03T22:34:22.047Z,9.00
2023-05-03T22:39:15.863Z,6.38
2023-05-03T22:44:08.931Z,7.80
2023-05-03T22:49:04.019Z,8.68
2023-05-03T22:53:57.386Z,7.03
2023-05-03T22:58:50.536Z,8.02
2023-05-03T23:03:43.870Z,8.30
2023-05-03T23:08:38.536Z,10.90
2023-05-03T23:13:31.857Z,8.25
2023-05-03T23:18:25.079Z,8.65
2023-05-03T23:23:18.380Z,6.75
2023-05-03T23:28:12.846Z,6.72
2023-05-03T23:33:06.507Z,7.53
2023-05-03T23:38:00.213Z,7.53
2023-05-03T23:42:53.465Z,5.70
2023-05-03T23:47:48.023Z,7.65
2023-05-03T23:52:42.500Z,7.25
2023-05-03T23:57:36.107Z,7.25
